Gould, Oklahoma
Current Conditions -  °F | °C
As of 5:55 AM on Friday 19 Dec 2014 (Local Time) from KAXS Reporting Station
Haze Haze  
Wind Chill: 37°   Ceiling: 900
Heat Index: 41°   Visibility: 4mi
Dew Point: 37°   Wind: 6mph
Humidity: 86%   Direction: 70°ENE
Pressure: 30.23"   Gusts: NA
Location:  34.67°N, 99.77°W
Report Text: KAXS 191155Z AUTO 07005KT 4SM BR BKN009 OVC012 05/03 A3023 RMK AO2 T00510030 10058 20050
Loading
Personal Weather Stations






























Interactive Weather Map New forecast layout! Learn more

10-Day Weather Forecast

Advertisements
Track Severe Weather on mobile